sensor_id;sensor_type;location;lat;lon;timestamp;P1;durP1;ratioP1;P2;durP2;ratioP2
25327;SDS011;13279;51.300;12.394;2023-10-31T00:01:05;14.87;;;10.10;;
25327;SDS011;13279;51.300;12.394;2023-10-31T00:03:33;13.83;;;9.97;;
25327;SDS011;13279;51.300;12.394;2023-10-31T00:06:00;11.93;;;8.93;;
25327;SDS011;13279;51.300;12.394;2023-10-31T00:08:29;13.17;;;8.57;;
25327;SDS011;13279;51.300;12.394;2023-10-31T00:10:56;17.93;;;8.67;;
25327;SDS011;13279;51.300;12.394;2023-10-31T00:13:24;12.43;;;8.20;;
25327;SDS011;13279;51.300;12.394;2023-10-31T00:15:51;18.50;;;9.33;;
25327;SDS011;13279;51.300;12.394;2023-10-31T00:18:19;14.83;;;8.67;;
25327;SDS011;13279;51.300;12.394;2023-10-31T00:20:46;14.03;;;8.77;;
25327;SDS011;13279;51.300;12.394;2023-10-31T00:23:15;17.27;;;10.13;;
25327;SDS011;13279;51.300;12.394;2023-10-31T00:25:43;15.10;;;9.13;;
25327;SDS011;13279;51.300;12.394;2023-10-31T00:28:11;16.77;;;9.20;;
25327;SDS011;13279;51.300;12.394;2023-10-31T00:30:38;12.63;;;9.13;;
25327;SDS011;13279;51.300;12.394;2023-10-31T00:33:06;17.70;;;9.07;;
25327;SDS011;13279;51.300;12.394;2023-10-31T00:35:33;21.80;;;10.70;;
25327;SDS011;13279;51.300;12.394;2023-10-31T00:38:01;17.60;;;11.10;;
25327;SDS011;13279;51.300;12.394;2023-10-31T00:40:28;15.90;;;10.17;;
25327;SDS011;13279;51.300;12.394;2023-10-31T00:42:57;13.70;;;9.27;;
25327;SDS011;13279;51.300;12.394;2023-10-31T00:45:26;18.13;;;10.83;;
25327;SDS011;13279;51.300;12.394;2023-10-31T00:47:53;18.57;;;11.07;;
25327;SDS011;13279;51.300;12.394;2023-10-31T00:50:21;20.50;;;11.57;;
25327;SDS011;13279;51.300;12.394;2023-10-31T00:52:48;20.83;;;11.47;;
25327;SDS011;13279;51.300;12.394;2023-10-31T00:55:16;23.17;;;12.63;;
25327;SDS011;13279;51.300;12.394;2023-10-31T00:57:43;20.70;;;11.63;;
25327;SDS011;13279;51.300;12.394;2023-10-31T01:00:13;25.30;;;13.83;;
25327;SDS011;13279;51.300;12.394;2023-10-31T01:02:41;23.57;;;12.13;;
25327;SDS011;13279;51.300;12.394;2023-10-31T01:05:08;28.20;;;13.77;;
25327;SDS011;13279;51.300;12.394;2023-10-31T01:07:37;25.90;;;13.27;;
25327;SDS011;13279;51.300;12.394;2023-10-31T01:10:04;24.80;;;13.27;;
25327;SDS011;13279;51.300;12.394;2023-10-31T01:12:33;20.10;;;13.17;;
25327;SDS011;13279;51.300;12.394;2023-10-31T01:15:00;28.37;;;15.23;;
25327;SDS011;13279;51.300;12.394;2023-10-31T01:17:29;27.20;;;15.33;;
25327;SDS011;13279;51.300;12.394;2023-10-31T01:19:57;35.00;;;18.17;;
25327;SDS011;13279;51.300;12.394;2023-10-31T01:22:24;36.70;;;17.10;;
25327;SDS011;13279;51.300;12.394;2023-10-31T01:24:52;31.80;;;17.83;;
25327;SDS011;13279;51.300;12.394;2023-10-31T01:27:19;32.23;;;19.33;;
25327;SDS011;13279;51.300;12.394;2023-10-31T01:29:47;33.07;;;19.27;;
25327;SDS011;13279;51.300;12.394;2023-10-31T01:32:15;34.73;;;19.47;;
25327;SDS011;13279;51.300;12.394;2023-10-31T01:34:45;38.50;;;20.70;;
25327;SDS011;13279;51.300;12.394;2023-10-31T01:37:13;34.50;;;20.53;;
25327;SDS011;13279;51.300;12.394;2023-10-31T01:39:41;35.97;;;21.40;;
25327;SDS011;13279;51.300;12.394;2023-10-31T01:42:09;37.13;;;21.27;;
25327;SDS011;13279;51.300;12.394;2023-10-31T01:44:36;42.03;;;22.23;;
25327;SDS011;13279;51.300;12.394;2023-10-31T01:47:04;37.23;;;21.67;;
25327;SDS011;13279;51.300;12.394;2023-10-31T01:49:31;45.27;;;23.07;;
25327;SDS011;13279;51.300;12.394;2023-10-31T01:52:01;43.77;;;23.27;;
25327;SDS011;13279;51.300;12.394;2023-10-31T01:54:29;44.57;;;22.50;;
25327;SDS011;13279;51.300;12.394;2023-10-31T01:56:57;39.87;;;22.47;;
25327;SDS011;13279;51.300;12.394;2023-10-31T01:59:26;41.63;;;23.97;;
25327;SDS011;13279;51.300;12.394;2023-10-31T02:01:54;42.30;;;23.27;;
25327;SDS011;13279;51.300;12.394;2023-10-31T02:04:23;40.10;;;21.93;;
25327;SDS011;13279;51.300;12.394;2023-10-31T02:06:51;38.73;;;22.00;;
25327;SDS011;13279;51.300;12.394;2023-10-31T02:09:20;43.40;;;23.30;;
25327;SDS011;13279;51.300;12.394;2023-10-31T02:11:50;50.60;;;25.50;;
25327;SDS011;13279;51.300;12.394;2023-10-31T02:14:18;42.50;;;23.87;;
25327;SDS011;13279;51.300;12.394;2023-10-31T02:16:45;42.80;;;23.97;;
25327;SDS011;13279;51.300;12.394;2023-10-31T02:19:13;41.47;;;23.47;;
25327;SDS011;13279;51.300;12.394;2023-10-31T02:21:47;43.93;;;23.10;;
25327;SDS011;13279;51.300;12.394;2023-10-31T02:24:14;52.13;;;23.50;;
25327;SDS011;13279;51.300;12.394;2023-10-31T02:26:42;50.40;;;22.87;;
25327;SDS011;13279;51.300;12.394;2023-10-31T02:29:10;46.50;;;23.00;;
25327;SDS011;13279;51.300;12.394;2023-10-31T02:31:37;41.67;;;22.03;;
25327;SDS011;13279;51.300;12.394;2023-10-31T02:34:05;41.10;;;22.80;;
25327;SDS011;13279;51.300;12.394;2023-10-31T02:36:33;36.97;;;21.73;;
25327;SDS011;13279;51.300;12.394;2023-10-31T02:39:02;38.30;;;21.43;;
25327;SDS011;13279;51.300;12.394;2023-10-31T02:41:30;39.43;;;21.03;;
25327;SDS011;13279;51.300;12.394;2023-10-31T02:43:58;33.37;;;19.70;;
25327;SDS011;13279;51.300;12.394;2023-10-31T02:46:25;38.27;;;18.40;;
25327;SDS011;13279;51.300;12.394;2023-10-31T02:48:53;33.77;;;18.87;;
25327;SDS011;13279;51.300;12.394;2023-10-31T02:51:20;39.30;;;19.10;;
25327;SDS011;13279;51.300;12.394;2023-10-31T02:53:48;33.50;;;18.97;;
25327;SDS011;13279;51.300;12.394;2023-10-31T02:56:17;30.73;;;17.57;;
25327;SDS011;13279;51.300;12.394;2023-10-31T02:58:45;30.90;;;17.37;;
25327;SDS011;13279;51.300;12.394;2023-10-31T03:01:13;33.80;;;18.50;;
25327;SDS011;13279;51.300;12.394;2023-10-31T03:03:41;38.83;;;18.57;;
25327;SDS011;13279;51.300;12.394;2023-10-31T03:06:08;30.57;;;17.37;;
25327;SDS011;13279;51.300;12.394;2023-10-31T03:08:36;33.57;;;17.17;;
25327;SDS011;13279;51.300;12.394;2023-10-31T03:11:04;37.07;;;18.10;;
25327;SDS011;13279;51.300;12.394;2023-10-31T03:13:33;33.40;;;17.03;;
25327;SDS011;13279;51.300;12.394;2023-10-31T03:16:00;34.63;;;17.70;;
25327;SDS011;13279;51.300;12.394;2023-10-31T03:18:28;32.03;;;16.93;;
25327;SDS011;13279;51.300;12.394;2023-10-31T03:20:55;36.70;;;17.33;;
25327;SDS011;13279;51.300;12.394;2023-10-31T03:23:23;34.57;;;17.90;;
25327;SDS011;13279;51.300;12.394;2023-10-31T03:25:50;36.43;;;18.27;;
25327;SDS011;13279;51.300;12.394;2023-10-31T03:28:18;32.83;;;17.20;;
25327;SDS011;13279;51.300;12.394;2023-10-31T03:30:56;28.43;;;15.83;;
25327;SDS011;13279;51.300;12.394;2023-10-31T03:33:43;30.67;;;15.73;;
25327;SDS011;13279;51.300;12.394;2023-10-31T03:36:10;29.70;;;16.23;;
25327;SDS011;13279;51.300;12.394;2023-10-31T03:38:38;30.73;;;15.60;;
25327;SDS011;13279;51.300;12.394;2023-10-31T03:41:06;30.40;;;16.17;;
25327;SDS011;13279;51.300;12.394;2023-10-31T03:43:34;33.03;;;16.27;;
25327;SDS011;13279;51.300;12.394;2023-10-31T03:46:04;34.17;;;15.37;;
25327;SDS011;13279;51.300;12.394;2023-10-31T03:48:32;28.20;;;15.07;;
25327;SDS011;13279;51.300;12.394;2023-10-31T03:50:59;23.37;;;12.40;;
25327;SDS011;13279;51.300;12.394;2023-10-31T03:53:27;30.47;;;13.10;;
25327;SDS011;13279;51.300;12.394;2023-10-31T03:55:55;26.33;;;14.63;;
25327;SDS011;13279;51.300;12.394;2023-10-31T03:58:25;28.30;;;11.93;;
25327;SDS011;13279;51.300;12.394;2023-10-31T04:00:52;25.23;;;13.30;;
25327;SDS011;13279;51.300;12.394;2023-10-31T04:03:21;21.40;;;12.20;;
25327;SDS011;13279;51.300;12.394;2023-10-31T04:05:49;19.00;;;10.83;;
25327;SDS011;13279;51.300;12.394;2023-10-31T04:08:17;18.20;;;10.57;;
25327;SDS011;13279;51.300;12.394;2023-10-31T04:10:44;19.30;;;11.57;;
25327;SDS011;13279;51.300;12.394;2023-10-31T04:13:12;21.97;;;10.90;;
25327;SDS011;13279;51.300;12.394;2023-10-31T04:15:39;19.57;;;10.10;;
25327;SDS011;13279;51.300;12.394;2023-10-31T04:18:07;19.80;;;11.07;;
25327;SDS011;13279;51.300;12.394;2023-10-31T04:20:36;10.63;;;7.30;;
25327;SDS011;13279;51.300;12.394;2023-10-31T04:23:03;17.20;;;7.23;;
25327;SDS011;13279;51.300;12.394;2023-10-31T04:25:31;12.83;;;7.53;;
25327;SDS011;13279;51.300;12.394;2023-10-31T04:27:59;14.23;;;7.87;;
25327;SDS011;13279;51.300;12.394;2023-10-31T04:30:26;10.17;;;7.13;;
25327;SDS011;13279;51.300;12.394;2023-10-31T04:32:54;15.07;;;6.90;;
25327;SDS011;13279;51.300;12.394;2023-10-31T04:35:22;18.03;;;6.50;;
25327;SDS011;13279;51.300;12.394;2023-10-31T04:37:51;10.10;;;6.10;;
25327;SDS011;13279;51.300;12.394;2023-10-31T04:40:18;12.30;;;5.53;;
25327;SDS011;13279;51.300;12.394;2023-10-31T04:42:46;9.30;;;5.93;;
25327;SDS011;13279;51.300;12.394;2023-10-31T04:45:14;9.57;;;5.17;;
25327;SDS011;13279;51.300;12.394;2023-10-31T04:47:41;9.87;;;4.83;;
25327;SDS011;13279;51.300;12.394;2023-10-31T04:50:09;4.83;;;4.00;;
25327;SDS011;13279;51.300;12.394;2023-10-31T04:52:36;5.27;;;3.90;;
25327;SDS011;13279;51.300;12.394;2023-10-31T04:55:05;8.03;;;3.70;;
25327;SDS011;13279;51.300;12.394;2023-10-31T04:57:34;4.93;;;3.83;;
25327;SDS011;13279;51.300;12.394;2023-10-31T05:00:01;6.90;;;3.67;;
25327;SDS011;13279;51.300;12.394;2023-10-31T05:02:31;4.10;;;3.47;;
25327;SDS011;13279;51.300;12.394;2023-10-31T05:04:58;3.40;;;3.07;;
25327;SDS011;13279;51.300;12.394;2023-10-31T05:07:26;3.33;;;2.93;;
25327;SDS011;13279;51.300;12.394;2023-10-31T05:09:53;4.03;;;3.63;;
25327;SDS011;13279;51.300;12.394;2023-10-31T05:12:22;3.13;;;2.80;;
25327;SDS011;13279;51.300;12.394;2023-10-31T05:14:49;2.93;;;2.73;;
25327;SDS011;13279;51.300;12.394;2023-10-31T05:17:17;2.43;;;2.23;;
25327;SDS011;13279;51.300;12.394;2023-10-31T05:19:44;2.63;;;2.20;;
25327;SDS011;13279;51.300;12.394;2023-10-31T05:22:11;2.03;;;1.83;;
25327;SDS011;13279;51.300;12.394;2023-10-31T05:24:39;2.00;;;1.90;;
25327;SDS011;13279;51.300;12.394;2023-10-31T05:27:06;1.30;;;1.30;;
25327;SDS011;13279;51.300;12.394;2023-10-31T05:29:35;3.13;;;1.37;;
25327;SDS011;13279;51.300;12.394;2023-10-31T05:32:05;1.30;;;1.20;;
25327;SDS011;13279;51.300;12.394;2023-10-31T05:34:33;0.80;;;0.80;;
25327;SDS011;13279;51.300;12.394;2023-10-31T05:37:00;1.63;;;1.00;;
25327;SDS011;13279;51.300;12.394;2023-10-31T05:39:28;4.63;;;1.13;;
25327;SDS011;13279;51.300;12.394;2023-10-31T05:41:55;4.23;;;1.13;;
25327;SDS011;13279;51.300;12.394;2023-10-31T05:44:22;5.60;;;1.17;;
25327;SDS011;13279;51.300;12.394;2023-10-31T05:46:51;0.70;;;0.70;;
25327;SDS011;13279;51.300;12.394;2023-10-31T05:49:19;2.47;;;0.90;;
25327;SDS011;13279;51.300;12.394;2023-10-31T05:51:49;1.00;;;1.00;;
25327;SDS011;13279;51.300;12.394;2023-10-31T05:54:17;0.77;;;0.77;;
25327;SDS011;13279;51.300;12.394;2023-10-31T05:56:44;0.80;;;0.80;;
25327;SDS011;13279;51.300;12.394;2023-10-31T05:59:13;0.60;;;0.60;;
25327;SDS011;13279;51.300;12.394;2023-10-31T06:01:40;1.63;;;0.83;;
25327;SDS011;13279;51.300;12.394;2023-10-31T06:04:10;2.63;;;0.47;;
25327;SDS011;13279;51.300;12.394;2023-10-31T06:06:38;0.83;;;0.83;;
25327;SDS011;13279;51.300;12.394;2023-10-31T06:09:05;0.70;;;0.70;;
25327;SDS011;13279;51.300;12.394;2023-10-31T06:11:34;2.00;;;0.67;;
25327;SDS011;13279;51.300;12.394;2023-10-31T06:14:01;0.50;;;0.50;;
25327;SDS011;13279;51.300;12.394;2023-10-31T06:16:30;0.60;;;0.60;;
25327;SDS011;13279;51.300;12.394;2023-10-31T06:18:57;0.40;;;0.40;;
25327;SDS011;13279;51.300;12.394;2023-10-31T06:21:26;1.27;;;0.60;;
25327;SDS011;13279;51.300;12.394;2023-10-31T06:23:53;1.77;;;0.80;;
25327;SDS011;13279;51.300;12.394;2023-10-31T06:26:21;3.10;;;0.60;;
25327;SDS011;13279;51.300;12.394;2023-10-31T06:28:48;0.43;;;0.43;;
25327;SDS011;13279;51.300;12.394;2023-10-31T06:31:16;4.53;;;0.67;;
25327;SDS011;13279;51.300;12.394;2023-10-31T06:33:43;1.13;;;0.70;;
25327;SDS011;13279;51.300;12.394;2023-10-31T06:36:11;1.20;;;1.20;;
25327;SDS011;13279;51.300;12.394;2023-10-31T06:38:40;3.47;;;0.73;;
25327;SDS011;13279;51.300;12.394;2023-10-31T06:41:07;2.57;;;1.00;;
25327;SDS011;13279;51.300;12.394;2023-10-31T06:43:34;0.60;;;0.60;;
25327;SDS011;13279;51.300;12.394;2023-10-31T06:46:02;3.80;;;1.00;;
25327;SDS011;13279;51.300;12.394;2023-10-31T06:48:30;0.80;;;0.80;;
25327;SDS011;13279;51.300;12.394;2023-10-31T06:50:58;2.63;;;0.70;;
25327;SDS011;13279;51.300;12.394;2023-10-31T06:53:25;0.60;;;0.60;;
25327;SDS011;13279;51.300;12.394;2023-10-31T06:55:54;1.03;;;0.50;;
25327;SDS011;13279;51.300;12.394;2023-10-31T06:58:21;1.63;;;0.60;;
25327;SDS011;13279;51.300;12.394;2023-10-31T07:00:49;0.80;;;0.50;;
25327;SDS011;13279;51.300;12.394;2023-10-31T07:03:16;2.63;;;0.57;;
25327;SDS011;13279;51.300;12.394;2023-10-31T07:05:44;4.50;;;0.80;;
25327;SDS011;13279;51.300;12.394;2023-10-31T07:08:13;2.53;;;0.80;;
25327;SDS011;13279;51.300;12.394;2023-10-31T07:10:40;1.13;;;1.03;;
25327;SDS011;13279;51.300;12.394;2023-10-31T07:13:09;0.67;;;0.60;;
25327;SDS011;13279;51.300;12.394;2023-10-31T07:15:36;1.27;;;0.60;;
25327;SDS011;13279;51.300;12.394;2023-10-31T07:18:04;0.60;;;0.60;;
25327;SDS011;13279;51.300;12.394;2023-10-31T07:20:33;0.67;;;0.57;;
25327;SDS011;13279;51.300;12.394;2023-10-31T07:23:00;1.07;;;0.53;;
25327;SDS011;13279;51.300;12.394;2023-10-31T07:25:27;6.60;;;0.93;;
25327;SDS011;13279;51.300;12.394;2023-10-31T07:27:55;0.60;;;0.60;;
25327;SDS011;13279;51.300;12.394;2023-10-31T07:30:24;0.77;;;0.57;;
25327;SDS011;13279;51.300;12.394;2023-10-31T07:32:52;0.97;;;0.80;;
25327;SDS011;13279;51.300;12.394;2023-10-31T07:35:19;1.23;;;0.60;;
25327;SDS011;13279;51.300;12.394;2023-10-31T07:37:47;2.83;;;0.60;;
25327;SDS011;13279;51.300;12.394;2023-10-31T07:40:18;2.43;;;0.60;;
25327;SDS011;13279;51.300;12.394;2023-10-31T07:42:45;2.03;;;0.53;;
25327;SDS011;13279;51.300;12.394;2023-10-31T07:45:12;0.93;;;0.70;;
25327;SDS011;13279;51.300;12.394;2023-10-31T07:47:41;0.50;;;0.50;;
25327;SDS011;13279;51.300;12.394;2023-10-31T07:50:09;1.83;;;0.40;;
25327;SDS011;13279;51.300;12.394;2023-10-31T07:52:36;2.57;;;0.67;;
25327;SDS011;13279;51.300;12.394;2023-10-31T07:55:04;0.40;;;0.40;;
25327;SDS011;13279;51.300;12.394;2023-10-31T07:57:32;1.50;;;1.00;;
25327;SDS011;13279;51.300;12.394;2023-10-31T07:59:59;0.60;;;0.43;;
25327;SDS011;13279;51.300;12.394;2023-10-31T08:02:26;0.70;;;0.70;;
25327;SDS011;13279;51.300;12.394;2023-10-31T08:04:55;3.50;;;0.97;;
25327;SDS011;13279;51.300;12.394;2023-10-31T08:07:22;0.50;;;0.50;;
25327;SDS011;13279;51.300;12.394;2023-10-31T08:09:55;1.27;;;0.50;;
25327;SDS011;13279;51.300;12.394;2023-10-31T08:12:22;0.50;;;0.50;;
25327;SDS011;13279;51.300;12.394;2023-10-31T08:14:50;3.13;;;0.57;;
25327;SDS011;13279;51.300;12.394;2023-10-31T08:17:17;2.37;;;0.37;;
25327;SDS011;13279;51.300;12.394;2023-10-31T08:19:45;1.70;;;0.60;;
25327;SDS011;13279;51.300;12.394;2023-10-31T08:22:14;2.10;;;0.40;;
25327;SDS011;13279;51.300;12.394;2023-10-31T08:24:42;1.27;;;0.57;;
25327;SDS011;13279;51.300;12.394;2023-10-31T08:27:09;0.83;;;0.53;;
25327;SDS011;13279;51.300;12.394;2023-10-31T08:29:38;1.70;;;0.60;;
25327;SDS011;13279;51.300;12.394;2023-10-31T08:32:05;0.37;;;0.37;;
25327;SDS011;13279;51.300;12.394;2023-10-31T08:34:33;0.47;;;0.47;;
25327;SDS011;13279;51.300;12.394;2023-10-31T08:37:00;5.83;;;0.70;;
25327;SDS011;13279;51.300;12.394;2023-10-31T08:39:30;1.20;;;0.57;;
25327;SDS011;13279;51.300;12.394;2023-10-31T08:41:57;1.33;;;0.50;;
25327;SDS011;13279;51.300;12.394;2023-10-31T08:44:25;0.77;;;0.30;;
25327;SDS011;13279;51.300;12.394;2023-10-31T08:46:53;0.77;;;0.40;;
25327;SDS011;13279;51.300;12.394;2023-10-31T08:49:21;2.07;;;0.30;;
25327;SDS011;13279;51.300;12.394;2023-10-31T08:51:48;1.80;;;0.30;;
25327;SDS011;13279;51.300;12.394;2023-10-31T08:54:15;0.70;;;0.30;;
25327;SDS011;13279;51.300;12.394;2023-10-31T08:56:44;2.63;;;0.47;;
25327;SDS011;13279;51.300;12.394;2023-10-31T08:59:12;0.20;;;0.20;;
25327;SDS011;13279;51.300;12.394;2023-10-31T09:01:39;1.30;;;0.40;;
25327;SDS011;13279;51.300;12.394;2023-10-31T09:04:06;0.20;;;0.20;;
25327;SDS011;13279;51.300;12.394;2023-10-31T09:06:34;0.70;;;0.20;;
25327;SDS011;13279;51.300;12.394;2023-10-31T09:09:02;1.67;;;0.30;;
25327;SDS011;13279;51.300;12.394;2023-10-31T09:11:30;1.60;;;0.50;;
25327;SDS011;13279;51.300;12.394;2023-10-31T09:13:58;0.23;;;0.20;;
25327;SDS011;13279;51.300;12.394;2023-10-31T09:16:26;2.17;;;0.40;;
25327;SDS011;13279;51.300;12.394;2023-10-31T09:18:53;0.87;;;0.30;;
25327;SDS011;13279;51.300;12.394;2023-10-31T09:21:20;0.57;;;0.40;;
25327;SDS011;13279;51.300;12.394;2023-10-31T09:23:48;3.03;;;0.57;;
25327;SDS011;13279;51.300;12.394;2023-10-31T09:26:15;6.33;;;5.73;;
25327;SDS011;13279;51.300;12.394;2023-10-31T09:28:43;0.67;;;0.67;;
25327;SDS011;13279;51.300;12.394;2023-10-31T09:31:17;0.63;;;0.27;;
25327;SDS011;13279;51.300;12.394;2023-10-31T09:33:44;1.70;;;0.53;;
25327;SDS011;13279;51.300;12.394;2023-10-31T09:36:12;1.37;;;0.80;;
25327;SDS011;13279;51.300;12.394;2023-10-31T09:38:40;0.73;;;0.30;;
25327;SDS011;13279;51.300;12.394;2023-10-31T09:41:07;0.10;;;0.10;;
25327;SDS011;13279;51.300;12.394;2023-10-31T09:43:34;0.30;;;0.30;;
25327;SDS011;13279;51.300;12.394;2023-10-31T09:46:03;0.40;;;0.20;;
25327;SDS011;13279;51.300;12.394;2023-10-31T09:48:32;1.43;;;0.50;;
25327;SDS011;13279;51.300;12.394;2023-10-31T09:51:01;0.30;;;0.30;;
25327;SDS011;13279;51.300;12.394;2023-10-31T09:53:29;1.23;;;0.67;;
25327;SDS011;13279;51.300;12.394;2023-10-31T09:55:58;0.20;;;0.20;;
25327;SDS011;13279;51.300;12.394;2023-10-31T09:58:25;0.10;;;0.10;;
25327;SDS011;13279;51.300;12.394;2023-10-31T10:00:52;0.27;;;0.27;;
25327;SDS011;13279;51.300;12.394;2023-10-31T10:03:20;0.77;;;0.40;;
25327;SDS011;13279;51.300;12.394;2023-10-31T10:05:50;0.63;;;0.40;;
25327;SDS011;13279;51.300;12.394;2023-10-31T10:08:18;0.30;;;0.30;;
25327;SDS011;13279;51.300;12.394;2023-10-31T10:10:47;0.20;;;0.20;;
25327;SDS011;13279;51.300;12.394;2023-10-31T10:13:17;0.20;;;0.20;;
25327;SDS011;13279;51.300;12.394;2023-10-31T10:15:47;1.07;;;0.40;;
25327;SDS011;13279;51.300;12.394;2023-10-31T10:18:27;0.60;;;0.20;;
25327;SDS011;13279;51.300;12.394;2023-10-31T10:20:57;0.77;;;0.30;;
25327;SDS011;13279;51.300;12.394;2023-10-31T10:23:25;0.20;;;0.20;;
25327;SDS011;13279;51.300;12.394;2023-10-31T10:25:54;3.70;;;0.30;;
25327;SDS011;13279;51.300;12.394;2023-10-31T10:28:22;0.63;;;0.30;;
25327;SDS011;13279;51.300;12.394;2023-10-31T10:30:51;0.50;;;0.30;;
25327;SDS011;13279;51.300;12.394;2023-10-31T10:33:19;1.20;;;0.30;;
25327;SDS011;13279;51.300;12.394;2023-10-31T10:35:47;2.73;;;0.30;;
25327;SDS011;13279;51.300;12.394;2023-10-31T10:38:17;0.27;;;0.27;;
25327;SDS011;13279;51.300;12.394;2023-10-31T10:40:45;0.30;;;0.30;;
25327;SDS011;13279;51.300;12.394;2023-10-31T10:43:20;0.30;;;0.30;;
25327;SDS011;13279;51.300;12.394;2023-10-31T10:45:51;0.17;;;0.17;;
25327;SDS011;13279;51.300;12.394;2023-10-31T10:48:22;0.30;;;0.30;;
25327;SDS011;13279;51.300;12.394;2023-10-31T10:50:51;0.10;;;0.10;;
25327;SDS011;13279;51.300;12.394;2023-10-31T10:53:27;2.50;;;0.40;;
25327;SDS011;13279;51.300;12.394;2023-10-31T10:56:03;0.27;;;0.27;;
25327;SDS011;13279;51.300;12.394;2023-10-31T10:58:37;0.30;;;0.30;;
25327;SDS011;13279;51.300;12.394;2023-10-31T11:01:15;1.03;;;0.40;;
25327;SDS011;13279;51.300;12.394;2023-10-31T11:03:43;0.20;;;0.20;;
25327;SDS011;13279;51.300;12.394;2023-10-31T11:06:12;0.50;;;0.30;;
25327;SDS011;13279;51.300;12.394;2023-10-31T11:08:41;0.40;;;0.40;;
25327;SDS011;13279;51.300;12.394;2023-10-31T11:11:11;1.27;;;0.30;;
25327;SDS011;13279;51.300;12.394;2023-10-31T11:13:41;0.17;;;0.17;;
25327;SDS011;13279;51.300;12.394;2023-10-31T11:16:11;0.73;;;0.53;;
25327;SDS011;13279;51.300;12.394;2023-10-31T11:18:44;0.30;;;0.30;;
25327;SDS011;13279;51.300;12.394;2023-10-31T11:21:11;0.40;;;0.30;;
25327;SDS011;13279;51.300;12.394;2023-10-31T11:23:39;0.53;;;0.23;;
25327;SDS011;13279;51.300;12.394;2023-10-31T11:26:08;0.40;;;0.40;;
25327;SDS011;13279;51.300;12.394;2023-10-31T11:28:36;0.50;;;0.50;;
25327;SDS011;13279;51.300;12.394;2023-10-31T11:31:04;0.83;;;0.60;;
25327;SDS011;13279;51.300;12.394;2023-10-31T11:33:34;4.67;;;2.20;;
25327;SDS011;13279;51.300;12.394;2023-10-31T11:36:08;1.53;;;0.27;;
25327;SDS011;13279;51.300;12.394;2023-10-31T11:38:38;2.73;;;1.80;;
25327;SDS011;13279;51.300;12.394;2023-10-31T11:41:05;1.90;;;0.47;;
25327;SDS011;13279;51.300;12.394;2023-10-31T11:43:51;0.30;;;0.30;;
25327;SDS011;13279;51.300;12.394;2023-10-31T11:46:19;0.40;;;0.40;;
25327;SDS011;13279;51.300;12.394;2023-10-31T11:48:50;0.50;;;0.30;;
25327;SDS011;13279;51.300;12.394;2023-10-31T11:51:18;3.93;;;0.90;;
25327;SDS011;13279;51.300;12.394;2023-10-31T11:53:46;0.60;;;0.60;;
25327;SDS011;13279;51.300;12.394;2023-10-31T11:56:18;1.03;;;0.50;;
25327;SDS011;13279;51.300;12.394;2023-10-31T11:58:55;2.23;;;0.43;;
25327;SDS011;13279;51.300;12.394;2023-10-31T12:01:28;0.30;;;0.30;;
25327;SDS011;13279;51.300;12.394;2023-10-31T12:03:56;1.17;;;0.50;;
25327;SDS011;13279;51.300;12.394;2023-10-31T12:06:23;1.03;;;0.67;;
25327;SDS011;13279;51.300;12.394;2023-10-31T12:08:51;0.50;;;0.50;;
25327;SDS011;13279;51.300;12.394;2023-10-31T12:11:19;0.60;;;0.50;;
25327;SDS011;13279;51.300;12.394;2023-10-31T12:13:53;0.40;;;0.40;;
25327;SDS011;13279;51.300;12.394;2023-10-31T12:16:26;1.10;;;0.47;;
25327;SDS011;13279;51.300;12.394;2023-10-31T12:18:54;1.97;;;0.50;;
25327;SDS011;13279;51.300;12.394;2023-10-31T12:21:38;1.10;;;0.53;;
25327;SDS011;13279;51.300;12.394;2023-10-31T12:24:09;1.70;;;0.50;;
25327;SDS011;13279;51.300;12.394;2023-10-31T12:26:37;0.50;;;0.50;;
25327;SDS011;13279;51.300;12.394;2023-10-31T12:29:07;0.60;;;0.60;;
25327;SDS011;13279;51.300;12.394;2023-10-31T12:31:44;3.17;;;1.93;;
25327;SDS011;13279;51.300;12.394;2023-10-31T12:34:13;1.57;;;1.00;;
25327;SDS011;13279;51.300;12.394;2023-10-31T12:36:41;0.70;;;0.70;;
25327;SDS011;13279;51.300;12.394;2023-10-31T12:39:11;1.23;;;0.93;;
25327;SDS011;13279;51.300;12.394;2023-10-31T12:41:38;0.40;;;0.40;;
25327;SDS011;13279;51.300;12.394;2023-10-31T12:44:08;0.87;;;0.87;;
25327;SDS011;13279;51.300;12.394;2023-10-31T12:46:38;0.50;;;0.50;;
25327;SDS011;13279;51.300;12.394;2023-10-31T12:49:10;0.83;;;0.43;;
25327;SDS011;13279;51.300;12.394;2023-10-31T12:51:52;2.40;;;0.80;;
25327;SDS011;13279;51.300;12.394;2023-10-31T12:54:29;1.70;;;0.50;;
25327;SDS011;13279;51.300;12.394;2023-10-31T12:57:00;0.50;;;0.50;;
25327;SDS011;13279;51.300;12.394;2023-10-31T12:59:31;0.53;;;0.53;;
25327;SDS011;13279;51.300;12.394;2023-10-31T13:01:58;0.70;;;0.70;;
25327;SDS011;13279;51.300;12.394;2023-10-31T13:04:25;0.60;;;0.60;;
25327;SDS011;13279;51.300;12.394;2023-10-31T13:07:00;0.90;;;0.90;;
25327;SDS011;13279;51.300;12.394;2023-10-31T13:09:30;2.47;;;0.70;;
25327;SDS011;13279;51.300;12.394;2023-10-31T13:11:57;1.00;;;0.43;;
25327;SDS011;13279;51.300;12.394;2023-10-31T13:14:26;1.23;;;0.80;;
25327;SDS011;13279;51.300;12.394;2023-10-31T13:16:55;2.43;;;0.60;;
25327;SDS011;13279;51.300;12.394;2023-10-31T13:19:23;0.43;;;0.30;;
25327;SDS011;13279;51.300;12.394;2023-10-31T13:21:50;1.60;;;0.90;;
25327;SDS011;13279;51.300;12.394;2023-10-31T13:24:18;1.57;;;1.10;;
25327;SDS011;13279;51.300;12.394;2023-10-31T13:26:45;0.97;;;0.90;;
25327;SDS011;13279;51.300;12.394;2023-10-31T13:29:17;1.47;;;0.40;;
25327;SDS011;13279;51.300;12.394;2023-10-31T13:31:44;0.90;;;0.90;;
25327;SDS011;13279;51.300;12.394;2023-10-31T13:34:13;0.60;;;0.60;;
25327;SDS011;13279;51.300;12.394;2023-10-31T13:36:40;0.47;;;0.47;;
25327;SDS011;13279;51.300;12.394;2023-10-31T13:39:09;0.73;;;0.50;;
25327;SDS011;13279;51.300;12.394;2023-10-31T13:41:38;1.43;;;0.40;;
25327;SDS011;13279;51.300;12.394;2023-10-31T13:44:05;3.63;;;0.70;;
25327;SDS011;13279;51.300;12.394;2023-10-31T13:46:33;0.60;;;0.60;;
25327;SDS011;13279;51.300;12.394;2023-10-31T13:49:00;0.63;;;0.63;;
25327;SDS011;13279;51.300;12.394;2023-10-31T13:51:30;0.63;;;0.53;;
25327;SDS011;13279;51.300;12.394;2023-10-31T13:53:57;0.53;;;0.53;;
25327;SDS011;13279;51.300;12.394;2023-10-31T13:56:25;0.97;;;0.73;;
25327;SDS011;13279;51.300;12.394;2023-10-31T13:58:52;1.43;;;0.80;;
25327;SDS011;13279;51.300;12.394;2023-10-31T14:01:19;0.53;;;0.43;;
25327;SDS011;13279;51.300;12.394;2023-10-31T14:03:50;1.40;;;0.57;;
25327;SDS011;13279;51.300;12.394;2023-10-31T14:06:17;1.67;;;0.70;;
25327;SDS011;13279;51.300;12.394;2023-10-31T14:08:46;0.60;;;0.60;;
25327;SDS011;13279;51.300;12.394;2023-10-31T14:11:14;0.50;;;0.50;;
25327;SDS011;13279;51.300;12.394;2023-10-31T14:13:41;0.63;;;0.63;;
25327;SDS011;13279;51.300;12.394;2023-10-31T14:16:10;0.50;;;0.50;;
25327;SDS011;13279;51.300;12.394;2023-10-31T14:18:38;0.50;;;0.47;;
25327;SDS011;13279;51.300;12.394;2023-10-31T14:21:06;1.17;;;1.07;;
25327;SDS011;13279;51.300;12.394;2023-10-31T14:23:34;3.13;;;1.50;;
25327;SDS011;13279;51.300;12.394;2023-10-31T14:26:02;2.10;;;1.47;;
25327;SDS011;13279;51.300;12.394;2023-10-31T14:28:30;1.70;;;0.60;;
25327;SDS011;13279;51.300;12.394;2023-10-31T14:31:03;0.60;;;0.60;;
25327;SDS011;13279;51.300;12.394;2023-10-31T14:33:34;0.50;;;0.50;;